sensor_id;sensor_type;location;lat;lon;timestamp;temperature;humidity
7206;DHT22;3644;53.480;10.004;2022-08-19T00:00:34;21.90;99.90
7206;DHT22;3644;53.480;10.004;2022-08-19T00:03:00;21.90;99.90
7206;DHT22;3644;53.480;10.004;2022-08-19T00:05:25;21.70;99.90
7206;DHT22;3644;53.480;10.004;2022-08-19T00:07:51;21.70;99.90
7206;DHT22;3644;53.480;10.004;2022-08-19T00:10:18;21.80;99.90
7206;DHT22;3644;53.480;10.004;2022-08-19T00:12:44;21.70;99.90
7206;DHT22;3644;53.480;10.004;2022-08-19T00:15:13;21.60;99.90
7206;DHT22;3644;53.480;10.004;2022-08-19T00:17:40;21.60;99.90
7206;DHT22;3644;53.480;10.004;2022-08-19T00:20:07;21.60;99.90
7206;DHT22;3644;53.480;10.004;2022-08-19T00:22:33;21.50;99.90
7206;DHT22;3644;53.480;10.004;2022-08-19T00:24:59;21.60;99.90
7206;DHT22;3644;53.480;10.004;2022-08-19T00:27:25;21.80;99.90
7206;DHT22;3644;53.480;10.004;2022-08-19T00:29:50;21.80;99.90
7206;DHT22;3644;53.480;10.004;2022-08-19T00:32:16;21.80;99.90
7206;DHT22;3644;53.480;10.004;2022-08-19T00:34:42;21.70;99.90
7206;DHT22;3644;53.480;10.004;2022-08-19T00:37:08;21.70;99.90
7206;DHT22;3644;53.480;10.004;2022-08-19T00:39:34;21.60;99.90
7206;DHT22;3644;53.480;10.004;2022-08-19T00:42:00;20.50;99.90
7206;DHT22;3644;53.480;10.004;2022-08-19T00:44:27;21.40;99.90
7206;DHT22;3644;53.480;10.004;2022-08-19T00:46:55;21.30;99.90
7206;DHT22;3644;53.480;10.004;2022-08-19T00:49:26;21.30;99.90
7206;DHT22;3644;53.480;10.004;2022-08-19T00:52:00;21.30;99.90
7206;DHT22;3644;53.480;10.004;2022-08-19T00:54:26;21.30;99.90
7206;DHT22;3644;53.480;10.004;2022-08-19T00:56:52;21.30;99.90
7206;DHT22;3644;53.480;10.004;2022-08-19T00:59:19;21.30;99.90
7206;DHT22;3644;53.480;10.004;2022-08-19T01:01:45;21.40;99.90
7206;DHT22;3644;53.480;10.004;2022-08-19T01:04:12;21.10;99.90
7206;DHT22;3644;53.480;10.004;2022-08-19T01:06:39;21.20;99.90
7206;DHT22;3644;53.480;10.004;2022-08-19T01:09:07;21.20;99.90
7206;DHT22;3644;53.480;10.004;2022-08-19T01:11:35;21.30;99.90
7206;DHT22;3644;53.480;10.004;2022-08-19T01:14:02;21.40;99.90
7206;DHT22;3644;53.480;10.004;2022-08-19T01:16:28;21.30;99.90
7206;DHT22;3644;53.480;10.004;2022-08-19T01:18:55;21.00;99.90
7206;DHT22;3644;53.480;10.004;2022-08-19T01:21:43;21.20;99.90
7206;DHT22;3644;53.480;10.004;2022-08-19T01:24:11;21.20;99.90
7206;DHT22;3644;53.480;10.004;2022-08-19T01:26:42;21.10;99.90
7206;DHT22;3644;53.480;10.004;2022-08-19T01:29:09;21.10;99.90
7206;DHT22;3644;53.480;10.004;2022-08-19T01:31:35;21.10;99.90
7206;DHT22;3644;53.480;10.004;2022-08-19T01:34:03;21.20;99.90
7206;DHT22;3644;53.480;10.004;2022-08-19T01:36:43;21.10;99.90
7206;DHT22;3644;53.480;10.004;2022-08-19T01:39:13;21.00;99.90
7206;DHT22;3644;53.480;10.004;2022-08-19T01:41:39;21.00;99.90
7206;DHT22;3644;53.480;10.004;2022-08-19T01:44:06;20.90;99.90
7206;DHT22;3644;53.480;10.004;2022-08-19T01:46:32;20.90;99.90
7206;DHT22;3644;53.480;10.004;2022-08-19T01:48:58;21.00;99.90
7206;DHT22;3644;53.480;10.004;2022-08-19T01:51:24;21.10;99.90
7206;DHT22;3644;53.480;10.004;2022-08-19T01:53:50;21.10;99.90
7206;DHT22;3644;53.480;10.004;2022-08-19T01:56:17;21.00;99.90
7206;DHT22;3644;53.480;10.004;2022-08-19T01:58:50;21.10;99.90
7206;DHT22;3644;53.480;10.004;2022-08-19T02:01:17;20.90;99.90
7206;DHT22;3644;53.480;10.004;2022-08-19T02:03:43;20.80;99.90
7206;DHT22;3644;53.480;10.004;2022-08-19T02:06:09;20.80;99.90
7206;DHT22;3644;53.480;10.004;2022-08-19T02:08:36;20.80;99.90
7206;DHT22;3644;53.480;10.004;2022-08-19T02:11:03;20.70;99.90
7206;DHT22;3644;53.480;10.004;2022-08-19T02:13:29;20.70;99.90
7206;DHT22;3644;53.480;10.004;2022-08-19T02:15:55;20.70;99.90
7206;DHT22;3644;53.480;10.004;2022-08-19T02:18:20;20.80;99.90
7206;DHT22;3644;53.480;10.004;2022-08-19T02:20:46;20.90;99.90
7206;DHT22;3644;53.480;10.004;2022-08-19T02:23:16;20.90;99.90
7206;DHT22;3644;53.480;10.004;2022-08-19T02:25:46;20.80;99.90
7206;DHT22;3644;53.480;10.004;2022-08-19T02:28:13;20.80;99.90
7206;DHT22;3644;53.480;10.004;2022-08-19T02:30:40;20.80;99.90
7206;DHT22;3644;53.480;10.004;2022-08-19T02:33:07;20.80;99.90
7206;DHT22;3644;53.480;10.004;2022-08-19T02:35:32;20.70;99.90
7206;DHT22;3644;53.480;10.004;2022-08-19T02:37:58;20.80;99.90
7206;DHT22;3644;53.480;10.004;2022-08-19T02:40:49;20.80;99.90
7206;DHT22;3644;53.480;10.004;2022-08-19T02:43:16;20.70;99.90
7206;DHT22;3644;53.480;10.004;2022-08-19T02:45:42;20.70;99.90
7206;DHT22;3644;53.480;10.004;2022-08-19T02:48:08;20.80;99.90
7206;DHT22;3644;53.480;10.004;2022-08-19T02:50:38;20.90;99.90
7206;DHT22;3644;53.480;10.004;2022-08-19T02:53:04;20.80;99.90
7206;DHT22;3644;53.480;10.004;2022-08-19T02:55:29;20.60;99.90
7206;DHT22;3644;53.480;10.004;2022-08-19T02:57:55;20.60;99.90
7206;DHT22;3644;53.480;10.004;2022-08-19T03:00:22;20.60;99.90
7206;DHT22;3644;53.480;10.004;2022-08-19T03:02:49;20.80;99.90
7206;DHT22;3644;53.480;10.004;2022-08-19T03:05:15;20.80;99.90
7206;DHT22;3644;53.480;10.004;2022-08-19T03:07:41;20.70;99.90
7206;DHT22;3644;53.480;10.004;2022-08-19T03:10:07;20.90;99.90
7206;DHT22;3644;53.480;10.004;2022-08-19T03:12:36;20.90;99.90
7206;DHT22;3644;53.480;10.004;2022-08-19T03:15:04;21.00;99.90
7206;DHT22;3644;53.480;10.004;2022-08-19T03:17:30;21.00;99.90
7206;DHT22;3644;53.480;10.004;2022-08-19T03:19:56;20.90;99.90
7206;DHT22;3644;53.480;10.004;2022-08-19T03:22:21;20.90;99.90
7206;DHT22;3644;53.480;10.004;2022-08-19T03:24:47;20.90;99.90
7206;DHT22;3644;53.480;10.004;2022-08-19T03:27:12;21.00;99.90
7206;DHT22;3644;53.480;10.004;2022-08-19T03:29:39;21.00;99.90
7206;DHT22;3644;53.480;10.004;2022-08-19T03:32:05;21.10;99.90
7206;DHT22;3644;53.480;10.004;2022-08-19T03:34:33;21.00;99.90
7206;DHT22;3644;53.480;10.004;2022-08-19T03:37:07;21.00;99.90
7206;DHT22;3644;53.480;10.004;2022-08-19T03:39:33;20.90;99.90
7206;DHT22;3644;53.480;10.004;2022-08-19T03:42:00;20.80;99.90
7206;DHT22;3644;53.480;10.004;2022-08-19T03:44:28;20.90;99.90
7206;DHT22;3644;53.480;10.004;2022-08-19T03:46:56;20.70;99.90
7206;DHT22;3644;53.480;10.004;2022-08-19T03:49:24;20.60;99.90
7206;DHT22;3644;53.480;10.004;2022-08-19T03:51:50;20.40;99.90
7206;DHT22;3644;53.480;10.004;2022-08-19T03:54:19;20.50;99.90
7206;DHT22;3644;53.480;10.004;2022-08-19T03:56:48;20.40;99.90
7206;DHT22;3644;53.480;10.004;2022-08-19T03:59:19;20.30;99.90
7206;DHT22;3644;53.480;10.004;2022-08-19T04:01:45;20.30;99.90
7206;DHT22;3644;53.480;10.004;2022-08-19T04:04:11;20.40;99.90
7206;DHT22;3644;53.480;10.004;2022-08-19T04:06:37;20.50;99.90
7206;DHT22;3644;53.480;10.004;2022-08-19T04:09:07;20.40;99.90
7206;DHT22;3644;53.480;10.004;2022-08-19T04:11:39;20.50;99.90
7206;DHT22;3644;53.480;10.004;2022-08-19T04:14:07;20.50;99.90
7206;DHT22;3644;53.480;10.004;2022-08-19T04:16:33;20.40;99.90
7206;DHT22;3644;53.480;10.004;2022-08-19T04:19:00;20.50;99.90
7206;DHT22;3644;53.480;10.004;2022-08-19T04:21:27;20.40;99.90
7206;DHT22;3644;53.480;10.004;2022-08-19T04:23:54;20.40;99.90
7206;DHT22;3644;53.480;10.004;2022-08-19T04:26:28;20.50;99.90
7206;DHT22;3644;53.480;10.004;2022-08-19T04:28:58;20.60;99.90
7206;DHT22;3644;53.480;10.004;2022-08-19T04:31:27;20.50;99.90
7206;DHT22;3644;53.480;10.004;2022-08-19T04:33:54;20.50;99.90
7206;DHT22;3644;53.480;10.004;2022-08-19T04:36:24;20.50;99.90
7206;DHT22;3644;53.480;10.004;2022-08-19T04:38:54;20.50;99.90
7206;DHT22;3644;53.480;10.004;2022-08-19T04:41:20;20.50;99.90
7206;DHT22;3644;53.480;10.004;2022-08-19T04:44:04;20.40;99.90
7206;DHT22;3644;53.480;10.004;2022-08-19T04:46:31;20.40;99.90
7206;DHT22;3644;53.480;10.004;2022-08-19T04:48:58;20.40;99.90
7206;DHT22;3644;53.480;10.004;2022-08-19T04:51:24;20.40;99.90
7206;DHT22;3644;53.480;10.004;2022-08-19T04:53:50;20.20;99.90
7206;DHT22;3644;53.480;10.004;2022-08-19T04:56:18;20.10;99.90
7206;DHT22;3644;53.480;10.004;2022-08-19T04:58:48;20.20;99.90
7206;DHT22;3644;53.480;10.004;2022-08-19T05:01:23;20.00;99.90
7206;DHT22;3644;53.480;10.004;2022-08-19T05:03:49;20.30;99.90
7206;DHT22;3644;53.480;10.004;2022-08-19T05:06:16;20.30;99.90
7206;DHT22;3644;53.480;10.004;2022-08-19T05:08:43;20.40;99.90
7206;DHT22;3644;53.480;10.004;2022-08-19T05:11:11;20.40;99.90
7206;DHT22;3644;53.480;10.004;2022-08-19T05:13:38;20.30;99.90
7206;DHT22;3644;53.480;10.004;2022-08-19T05:16:04;20.40;99.90
7206;DHT22;3644;53.480;10.004;2022-08-19T05:18:29;20.30;99.90
7206;DHT22;3644;53.480;10.004;2022-08-19T05:21:15;20.50;99.90
7206;DHT22;3644;53.480;10.004;2022-08-19T05:24:00;20.50;99.90
7206;DHT22;3644;53.480;10.004;2022-08-19T05:26:27;20.40;99.90
7206;DHT22;3644;53.480;10.004;2022-08-19T05:28:53;20.30;99.90
7206;DHT22;3644;53.480;10.004;2022-08-19T05:31:19;20.40;99.90
7206;DHT22;3644;53.480;10.004;2022-08-19T05:33:44;20.40;99.90
7206;DHT22;3644;53.480;10.004;2022-08-19T05:36:10;20.50;99.90
7206;DHT22;3644;53.480;10.004;2022-08-19T05:38:36;20.40;99.90
7206;DHT22;3644;53.480;10.004;2022-08-19T05:41:09;20.60;99.90
7206;DHT22;3644;53.480;10.004;2022-08-19T05:43:36;20.40;99.90
7206;DHT22;3644;53.480;10.004;2022-08-19T05:46:03;20.40;99.90
7206;DHT22;3644;53.480;10.004;2022-08-19T05:48:30;20.50;99.90
7206;DHT22;3644;53.480;10.004;2022-08-19T05:50:56;20.70;99.90
7206;DHT22;3644;53.480;10.004;2022-08-19T05:53:25;20.50;99.90
7206;DHT22;3644;53.480;10.004;2022-08-19T05:55:50;20.50;99.90
7206;DHT22;3644;53.480;10.004;2022-08-19T05:58:16;20.60;99.90
7206;DHT22;3644;53.480;10.004;2022-08-19T06:00:43;20.50;99.90
7206;DHT22;3644;53.480;10.004;2022-08-19T06:03:09;20.50;99.90
7206;DHT22;3644;53.480;10.004;2022-08-19T06:05:35;20.60;99.90
7206;DHT22;3644;53.480;10.004;2022-08-19T06:08:01;20.80;99.90
7206;DHT22;3644;53.480;10.004;2022-08-19T06:10:26;20.70;99.90
7206;DHT22;3644;53.480;10.004;2022-08-19T06:12:52;20.70;99.90
7206;DHT22;3644;53.480;10.004;2022-08-19T06:15:18;20.70;99.90
7206;DHT22;3644;53.480;10.004;2022-08-19T06:17:44;20.80;99.90
7206;DHT22;3644;53.480;10.004;2022-08-19T06:20:12;20.90;99.90
7206;DHT22;3644;53.480;10.004;2022-08-19T06:22:40;20.90;99.90
7206;DHT22;3644;53.480;10.004;2022-08-19T06:25:07;20.90;99.90
7206;DHT22;3644;53.480;10.004;2022-08-19T06:27:34;21.00;99.90
7206;DHT22;3644;53.480;10.004;2022-08-19T06:30:00;21.00;99.90
7206;DHT22;3644;53.480;10.004;2022-08-19T06:32:26;21.00;99.90
7206;DHT22;3644;53.480;10.004;2022-08-19T06:34:51;21.20;99.90
7206;DHT22;3644;53.480;10.004;2022-08-19T06:37:17;21.00;99.90
7206;DHT22;3644;53.480;10.004;2022-08-19T06:39:44;21.00;99.90
7206;DHT22;3644;53.480;10.004;2022-08-19T06:42:11;21.00;99.90
7206;DHT22;3644;53.480;10.004;2022-08-19T06:44:40;20.90;99.90
7206;DHT22;3644;53.480;10.004;2022-08-19T06:47:08;20.90;99.90
7206;DHT22;3644;53.480;10.004;2022-08-19T06:49:35;20.90;99.90
7206;DHT22;3644;53.480;10.004;2022-08-19T06:52:01;21.00;99.90
7206;DHT22;3644;53.480;10.004;2022-08-19T06:54:27;20.90;99.90
7206;DHT22;3644;53.480;10.004;2022-08-19T06:56:55;20.80;99.90
7206;DHT22;3644;53.480;10.004;2022-08-19T06:59:23;21.00;99.90
7206;DHT22;3644;53.480;10.004;2022-08-19T07:01:55;20.80;99.90
7206;DHT22;3644;53.480;10.004;2022-08-19T07:04:24;20.80;99.90
7206;DHT22;3644;53.480;10.004;2022-08-19T07:06:55;20.80;99.90
7206;DHT22;3644;53.480;10.004;2022-08-19T07:09:22;20.70;99.90
7206;DHT22;3644;53.480;10.004;2022-08-19T07:11:49;20.70;99.90
7206;DHT22;3644;53.480;10.004;2022-08-19T07:14:17;20.70;99.90
7206;DHT22;3644;53.480;10.004;2022-08-19T07:16:44;20.80;99.90
7206;DHT22;3644;53.480;10.004;2022-08-19T07:19:11;20.90;99.90
7206;DHT22;3644;53.480;10.004;2022-08-19T07:21:36;20.80;99.90
7206;DHT22;3644;53.480;10.004;2022-08-19T07:24:03;20.90;99.90
7206;DHT22;3644;53.480;10.004;2022-08-19T07:26:31;21.00;99.90
7206;DHT22;3644;53.480;10.004;2022-08-19T07:28:58;20.90;99.90
7206;DHT22;3644;53.480;10.004;2022-08-19T07:31:27;20.90;99.90
7206;DHT22;3644;53.480;10.004;2022-08-19T07:33:54;21.00;99.90
7206;DHT22;3644;53.480;10.004;2022-08-19T07:36:26;21.10;99.90
7206;DHT22;3644;53.480;10.004;2022-08-19T07:38:55;21.10;99.90
7206;DHT22;3644;53.480;10.004;2022-08-19T07:41:23;21.20;99.90
7206;DHT22;3644;53.480;10.004;2022-08-19T07:43:50;21.10;99.90
7206;DHT22;3644;53.480;10.004;2022-08-19T07:46:16;21.20;99.90
7206;DHT22;3644;53.480;10.004;2022-08-19T07:48:43;21.10;99.90
7206;DHT22;3644;53.480;10.004;2022-08-19T07:51:13;20.90;99.90
7206;DHT22;3644;53.480;10.004;2022-08-19T07:53:39;20.90;99.90
7206;DHT22;3644;53.480;10.004;2022-08-19T07:56:05;20.90;99.90
7206;DHT22;3644;53.480;10.004;2022-08-19T07:58:34;20.90;99.90
7206;DHT22;3644;53.480;10.004;2022-08-19T08:01:01;20.90;99.90
7206;DHT22;3644;53.480;10.004;2022-08-19T08:03:28;20.90;99.90
7206;DHT22;3644;53.480;10.004;2022-08-19T08:06:14;20.90;99.90
7206;DHT22;3644;53.480;10.004;2022-08-19T08:09:00;20.90;99.90
7206;DHT22;3644;53.480;10.004;2022-08-19T08:11:46;21.10;99.90
7206;DHT22;3644;53.480;10.004;2022-08-19T08:14:23;21.10;99.90
7206;DHT22;3644;53.480;10.004;2022-08-19T08:16:49;20.90;99.90
7206;DHT22;3644;53.480;10.004;2022-08-19T08:19:18;20.90;99.90
7206;DHT22;3644;53.480;10.004;2022-08-19T08:21:44;20.90;99.90
7206;DHT22;3644;53.480;10.004;2022-08-19T08:24:11;21.00;99.90
7206;DHT22;3644;53.480;10.004;2022-08-19T08:26:38;21.10;99.90
7206;DHT22;3644;53.480;10.004;2022-08-19T08:29:04;21.20;99.90
7206;DHT22;3644;53.480;10.004;2022-08-19T08:31:29;21.10;99.90
7206;DHT22;3644;53.480;10.004;2022-08-19T08:33:55;21.10;99.90
7206;DHT22;3644;53.480;10.004;2022-08-19T08:36:21;20.90;99.90
7206;DHT22;3644;53.480;10.004;2022-08-19T08:38:47;20.90;99.90
7206;DHT22;3644;53.480;10.004;2022-08-19T08:41:35;20.90;99.90
7206;DHT22;3644;53.480;10.004;2022-08-19T08:44:03;20.90;99.90
7206;DHT22;3644;53.480;10.004;2022-08-19T08:46:48;21.10;99.90
7206;DHT22;3644;53.480;10.004;2022-08-19T08:52:06;21.20;99.90
7206;DHT22;3644;53.480;10.004;2022-08-19T08:54:37;21.20;99.90
7206;DHT22;3644;53.480;10.004;2022-08-19T08:57:13;21.10;99.90
7206;DHT22;3644;53.480;10.004;2022-08-19T08:59:40;21.20;99.90
7206;DHT22;3644;53.480;10.004;2022-08-19T09:02:07;21.30;99.90
7206;DHT22;3644;53.480;10.004;2022-08-19T09:04:37;21.20;99.90
7206;DHT22;3644;53.480;10.004;2022-08-19T09:07:34;21.30;99.90
7206;DHT22;3644;53.480;10.004;2022-08-19T09:15:39;21.50;99.90
7206;DHT22;3644;53.480;10.004;2022-08-19T09:18:05;21.50;99.90
7206;DHT22;3644;53.480;10.004;2022-08-19T09:20:33;21.50;99.90
7206;DHT22;3644;53.480;10.004;2022-08-19T09:22:58;21.60;99.90
7206;DHT22;3644;53.480;10.004;2022-08-19T09:25:25;21.70;99.90
7206;DHT22;3644;53.480;10.004;2022-08-19T09:27:52;21.60;99.90
7206;DHT22;3644;53.480;10.004;2022-08-19T09:30:26;21.70;99.90
7206;DHT22;3644;53.480;10.004;2022-08-19T09:32:52;21.70;99.90
7206;DHT22;3644;53.480;10.004;2022-08-19T09:35:19;21.70;99.90
7206;DHT22;3644;53.480;10.004;2022-08-19T09:37:47;21.90;99.90
7206;DHT22;3644;53.480;10.004;2022-08-19T09:40:12;21.90;99.90
7206;DHT22;3644;53.480;10.004;2022-08-19T09:42:38;21.80;99.90
7206;DHT22;3644;53.480;10.004;2022-08-19T09:45:04;21.70;99.90
7206;DHT22;3644;53.480;10.004;2022-08-19T09:47:30;21.70;99.90
7206;DHT22;3644;53.480;10.004;2022-08-19T09:49:55;21.80;99.90
7206;DHT22;3644;53.480;10.004;2022-08-19T09:52:21;22.00;99.90
7206;DHT22;3644;53.480;10.004;2022-08-19T09:54:46;22.00;99.90
7206;DHT22;3644;53.480;10.004;2022-08-19T09:57:12;21.80;99.90
7206;DHT22;3644;53.480;10.004;2022-08-19T09:59:38;21.70;99.90
7206;DHT22;3644;53.480;10.004;2022-08-19T10:02:04;21.70;99.90
7206;DHT22;3644;53.480;10.004;2022-08-19T10:04:30;21.80;99.90
7206;DHT22;3644;53.480;10.004;2022-08-19T10:07:15;21.90;99.90
7206;DHT22;3644;53.480;10.004;2022-08-19T10:09:41;22.00;99.90
7206;DHT22;3644;53.480;10.004;2022-08-19T10:12:07;22.10;99.90
7206;DHT22;3644;53.480;10.004;2022-08-19T10:14:33;22.00;99.90
7206;DHT22;3644;53.480;10.004;2022-08-19T10:16:58;22.10;99.90
7206;DHT22;3644;53.480;10.004;2022-08-19T10:19:26;22.00;99.90
7206;DHT22;3644;53.480;10.004;2022-08-19T10:21:51;21.80;99.90
7206;DHT22;3644;53.480;10.004;2022-08-19T10:24:17;21.80;99.90
7206;DHT22;3644;53.480;10.004;2022-08-19T10:26:43;21.70;99.90
7206;DHT22;3644;53.480;10.004;2022-08-19T10:29:11;21.70;99.90
7206;DHT22;3644;53.480;10.004;2022-08-19T10:31:37;21.80;99.90
7206;DHT22;3644;53.480;10.004;2022-08-19T10:34:03;21.70;99.90
7206;DHT22;3644;53.480;10.004;2022-08-19T10:36:32;21.60;99.90
7206;DHT22;3644;53.480;10.004;2022-08-19T10:39:00;21.60;99.90
7206;DHT22;3644;53.480;10.004;2022-08-19T10:41:32;21.70;99.90
7206;DHT22;3644;53.480;10.004;2022-08-19T10:44:03;21.70;99.90
7206;DHT22;3644;53.480;10.004;2022-08-19T10:46:31;21.70;99.90
7206;DHT22;3644;53.480;10.004;2022-08-19T10:48:58;21.60;99.90
7206;DHT22;3644;53.480;10.004;2022-08-19T10:51:24;21.50;99.90
7206;DHT22;3644;53.480;10.004;2022-08-19T10:54:16;21.40;99.90
7206;DHT22;3644;53.480;10.004;2022-08-19T10:56:42;21.50;99.90
7206;DHT22;3644;53.480;10.004;2022-08-19T10:59:23;21.70;99.90
7206;DHT22;3644;53.480;10.004;2022-08-19T11:01:50;21.70;99.90
7206;DHT22;3644;53.480;10.004;2022-08-19T11:04:17;21.60;99.90
7206;DHT22;3644;53.480;10.004;2022-08-19T11:06:44;21.60;99.90
7206;DHT22;3644;53.480;10.004;2022-08-19T11:09:14;22.00;99.90
7206;DHT22;3644;53.480;10.004;2022-08-19T11:11:41;22.00;99.90
7206;DHT22;3644;53.480;10.004;2022-08-19T11:14:08;22.10;99.90
7206;DHT22;3644;53.480;10.004;2022-08-19T11:16:35;22.00;99.90
7206;DHT22;3644;53.480;10.004;2022-08-19T11:19:00;22.00;99.90
7206;DHT22;3644;53.480;10.004;2022-08-19T11:21:31;22.00;99.90
7206;DHT22;3644;53.480;10.004;2022-08-19T11:24:00;22.10;99.90
7206;DHT22;3644;53.480;10.004;2022-08-19T11:26:27;22.40;99.90
7206;DHT22;3644;53.480;10.004;2022-08-19T11:28:53;22.60;99.90
7206;DHT22;3644;53.480;10.004;2022-08-19T11:31:24;22.50;99.90
7206;DHT22;3644;53.480;10.004;2022-08-19T11:33:51;22.40;99.90
7206;DHT22;3644;53.480;10.004;2022-08-19T11:36:18;22.50;99.90
7206;DHT22;3644;53.480;10.004;2022-08-19T11:38:45;22.50;99.90
7206;DHT22;3644;53.480;10.004;2022-08-19T11:41:10;22.60;99.90
7206;DHT22;3644;53.480;10.004;2022-08-19T11:43:36;22.70;99.90
7206;DHT22;3644;53.480;10.004;2022-08-19T11:46:07;22.80;99.90
7206;DHT22;3644;53.480;10.004;2022-08-19T11:48:33;22.90;99.90
7206;DHT22;3644;53.480;10.004;2022-08-19T11:51:02;23.10;99.90
7206;DHT22;3644;53.480;10.004;2022-08-19T11:53:30;23.20;99.90
7206;DHT22;3644;53.480;10.004;2022-08-19T11:55:56;23.20;99.90
7206;DHT22;3644;53.480;10.004;2022-08-19T11:58:22;23.30;99.90
7206;DHT22;3644;53.480;10.004;2022-08-19T12:00:48;23.30;99.90
7206;DHT22;3644;53.480;10.004;2022-08-19T12:03:13;23.40;99.90
7206;DHT22;3644;53.480;10.004;2022-08-19T12:05:40;23.20;99.90
7206;DHT22;3644;53.480;10.004;2022-08-19T12:08:06;23.30;99.90
7206;DHT22;3644;53.480;10.004;2022-08-19T12:10:32;23.30;99.90
7206;DHT22;3644;53.480;10.004;2022-08-19T12:12:58;23.10;99.90
7206;DHT22;3644;53.480;10.004;2022-08-19T12:15:23;23.10;99.90
7206;DHT22;3644;53.480;10.004;2022-08-19T12:17:49;23.20;99.90
7206;DHT22;3644;53.480;10.004;2022-08-19T12:20:15;23.20;99.90
7206;DHT22;3644;53.480;10.004;2022-08-19T12:22:42;23.20;99.90
7206;DHT22;3644;53.480;10.004;2022-08-19T12:25:11;23.30;99.90
7206;DHT22;3644;53.480;10.004;2022-08-19T12:27:38;23.40;99.90
7206;DHT22;3644;53.480;10.004;2022-08-19T12:30:06;23.40;99.90
7206;DHT22;3644;53.480;10.004;2022-08-19T12:32:33;23.50;99.90
7206;DHT22;3644;53.480;10.004;2022-08-19T12:34:59;23.50;99.90
7206;DHT22;3644;53.480;10.004;2022-08-19T12:37:24;23.80;99.90
7206;DHT22;3644;53.480;10.004;2022-08-19T12:39:50;23.90;99.90
7206;DHT22;3644;53.480;10.004;2022-08-19T12:42:15;24.10;99.90
7206;DHT22;3644;53.480;10.004;2022-08-19T12:44:42;24.30;99.90
7206;DHT22;3644;53.480;10.004;2022-08-19T12:47:10;24.40;99.90
7206;DHT22;3644;53.480;10.004;2022-08-19T12:49:36;24.70;99.90
7206;DHT22;3644;53.480;10.004;2022-08-19T12:52:04;25.00;99.90
7206;DHT22;3644;53.480;10.004;2022-08-19T12:54:31;24.90;99.90
7206;DHT22;3644;53.480;10.004;2022-08-19T12:56:58;25.00;99.90
7206;DHT22;3644;53.480;10.004;2022-08-19T12:59:25;25.30;99.90
7206;DHT22;3644;53.480;10.004;2022-08-19T13:01:50;25.40;99.90
7206;DHT22;3644;53.480;10.004;2022-08-19T13:04:16;25.60;99.90
7206;DHT22;3644;53.480;10.004;2022-08-19T13:06:42;25.90;99.90
7206;DHT22;3644;53.480;10.004;2022-08-19T13:09:08;26.00;99.90
7206;DHT22;3644;53.480;10.004;2022-08-19T13:11:34;25.70;99.90
7206;DHT22;3644;53.480;10.004;2022-08-19T13:14:02;25.60;99.90
7206;DHT22;3644;53.480;10.004;2022-08-19T13:16:28;25.70;99.90
7206;DHT22;3644;53.480;10.004;2022-08-19T13:18:54;25.60;99.90
7206;DHT22;3644;53.480;10.004;2022-08-19T13:21:23;25.50;99.90
7206;DHT22;3644;53.480;10.004;2022-08-19T13:23:49;25.50;99.90
7206;DHT22;3644;53.480;10.004;2022-08-19T13:26:15;25.50;99.90
7206;DHT22;3644;53.480;10.004;2022-08-19T13:28:42;25.70;99.90
7206;DHT22;3644;53.480;10.004;2022-08-19T13:31:33;25.40;99.90
7206;DHT22;3644;53.480;10.004;2022-08-19T13:34:19;25.20;99.90
7206;DHT22;3644;53.480;10.004;2022-08-19T13:36:46;25.20;99.90
7206;DHT22;3644;53.480;10.004;2022-08-19T13:39:12;25.30;99.90
7206;DHT22;3644;53.480;10.004;2022-08-19T13:41:44;25.50;99.90
7206;DHT22;3644;53.480;10.004;2022-08-19T13:44:13;25.50;99.90
7206;DHT22;3644;53.480;10.004;2022-08-19T13:46:39;25.40;99.90
7206;DHT22;3644;53.480;10.004;2022-08-19T13:49:04;25.30;99.90
7206;DHT22;3644;53.480;10.004;2022-08-19T13:51:30;25.30;99.90
7206;DHT22;3644;53.480;10.004;2022-08-19T13:53:55;25.20;99.90
7206;DHT22;3644;53.480;10.004;2022-08-19T13:56:21;25.20;99.90
7206;DHT22;3644;53.480;10.004;2022-08-19T13:58:47;25.20;99.90
7206;DHT22;3644;53.480;10.004;2022-08-19T14:01:17;25.00;99.90
7206;DHT22;3644;53.480;10.004;2022-08-19T14:03:43;25.00;99.90
7206;DHT22;3644;53.480;10.004;2022-08-19T14:06:09;25.00;99.90
7206;DHT22;3644;53.480;10.004;2022-08-19T14:08:35;24.90;99.90
7206;DHT22;3644;53.480;10.004;2022-08-19T14:11:04;24.90;99.90
7206;DHT22;3644;53.480;10.004;2022-08-19T14:13:30;24.90;99.90
7206;DHT22;3644;53.480;10.004;2022-08-19T14:15:56;24.80;99.90
7206;DHT22;3644;53.480;10.004;2022-08-19T14:18:23;24.60;99.90
7206;DHT22;3644;53.480;10.004;2022-08-19T14:20:50;24.70;99.90
7206;DHT22;3644;53.480;10.004;2022-08-19T14:23:16;24.80;99.90
7206;DHT22;3644;53.480;10.004;2022-08-19T14:25:42;24.90;99.90
7206;DHT22;3644;53.480;10.004;2022-08-19T14:28:07;24.90;99.90
7206;DHT22;3644;53.480;10.004;2022-08-19T14:30:35;25.10;99.90
7206;DHT22;3644;53.480;10.004;2022-08-19T14:33:03;25.10;99.90
7206;DHT22;3644;53.480;10.004;2022-08-19T14:35:31;25.20;99.90
7206;DHT22;3644;53.480;10.004;2022-08-19T14:38:04;25.20;99.90
7206;DHT22;3644;53.480;10.004;2022-08-19T14:40:30;25.40;99.90
7206;DHT22;3644;53.480;10.004;2022-08-19T14:43:01;25.30;99.90
7206;DHT22;3644;53.480;10.004;2022-08-19T14:45:30;25.40;99.90
7206;DHT22;3644;53.480;10.004;2022-08-19T14:47:57;25.40;99.90
7206;DHT22;3644;53.480;10.004;2022-08-19T14:50:24;25.80;99.90
7206;DHT22;3644;53.480;10.004;2022-08-19T14:52:56;25.90;99.90
7206;DHT22;3644;53.480;10.004;2022-08-19T14:55:22;26.10;99.90
7206;DHT22;3644;53.480;10.004;2022-08-19T14:57:48;26.10;99.90
7206;DHT22;3644;53.480;10.004;2022-08-19T15:00:14;26.10;99.90
7206;DHT22;3644;53.480;10.004;2022-08-19T15:02:40;26.30;99.90
7206;DHT22;3644;53.480;10.004;2022-08-19T15:05:06;26.40;99.90
7206;DHT22;3644;53.480;10.004;2022-08-19T15:07:32;26.20;99.90
7206;DHT22;3644;53.480;10.004;2022-08-19T15:09:58;26.10;99.90
7206;DHT22;3644;53.480;10.004;2022-08-19T15:12:23;26.30;99.90
7206;DHT22;3644;53.480;10.004;2022-08-19T15:14:49;26.20;99.90
7206;DHT22;3644;53.480;10.004;2022-08-19T15:17:18;26.00;99.90
7206;DHT22;3644;53.480;10.004;2022-08-19T15:19:44;26.10;99.90
7206;DHT22;3644;53.480;10.004;2022-08-19T15:22:10;26.20;99.90
7206;DHT22;3644;53.480;10.004;2022-08-19T15:24:35;26.20;99.90
7206;DHT22;3644;53.480;10.004;2022-08-19T15:27:03;26.00;99.90
7206;DHT22;3644;53.480;10.004;2022-08-19T15:29:30;25.90;99.90
7206;DHT22;3644;53.480;10.004;2022-08-19T15:31:56;25.80;99.90
7206;DHT22;3644;53.480;10.004;2022-08-19T15:34:23;25.80;99.90
7206;DHT22;3644;53.480;10.004;2022-08-19T15:36:49;26.00;99.90
7206;DHT22;3644;53.480;10.004;2022-08-19T15:39:15;26.00;99.90
7206;DHT22;3644;53.480;10.004;2022-08-19T15:41:41;26.20;99.90
7206;DHT22;3644;53.480;10.004;2022-08-19T15:44:13;26.40;99.90
7206;DHT22;3644;53.480;10.004;2022-08-19T15:46:42;26.50;99.90
7206;DHT22;3644;53.480;10.004;2022-08-19T15:49:09;26.60;99.90
7206;DHT22;3644;53.480;10.004;2022-08-19T15:51:37;26.70;99.90
7206;DHT22;3644;53.480;10.004;2022-08-19T15:54:05;26.90;99.90
7206;DHT22;3644;53.480;10.004;2022-08-19T15:56:30;26.80;99.90